Time;durP1;ratioP1;P1;durP2;ratioP2;P2;SDS_P1;SDS_P2;PMS_P1;PMS_P2;Temp;Humidity;BMP_temperature;BMP_pressure;BME280_temperature;BME280_humidity;BME280_pressure;Samples;Min_cycle;Max_cycle;Signal;HPM_P1;HPM_P2
2021/12/01 00:00:54;;;;;;;12.63;5.80;;;;;;;-1.91;100.00;92777.09;5054803;28;20053;-85
2021/12/01 00:03:22;;;;;;;10.00;5.13;;;;;;;-1.94;100.00;92771.56;5055032;28;20060;-83
2021/12/01 00:05:50;;;;;;;9.20;4.60;;;;;;;-1.84;100.00;92777.31;5054688;28;20045;-83
2021/12/01 00:08:18;;;;;;;14.52;7.72;;;;;;;-1.78;100.00;92755.78;5054534;28;20087;-83
2021/12/01 00:10:46;;;;;;;7.82;3.83;;;;;;;-1.77;100.00;92762.38;5064733;28;20504;-84
2021/12/01 00:13:15;;;;;;;24.55;11.85;;;;;;;-1.84;100.00;92767.22;5064810;28;20048;-84
2021/12/01 00:15:44;;;;;;;19.13;9.93;;;;;;;-1.74;100.00;92779.75;5064964;28;20033;-85
2021/12/01 00:18:12;;;;;;;16.73;8.88;;;;;;;-1.80;100.00;92760.94;5065470;28;20040;-85
2021/12/01 00:20:39;;;;;;;11.90;6.28;;;;;;;-2.33;100.00;92689.56;5066053;28;20098;-86
2021/12/01 00:23:08;;;;;;;12.23;7.25;;;;;;;-2.17;100.00;92714.88;5065172;28;20127;-84
2021/12/01 00:25:39;;;;;;;7.88;4.32;;;;;;;-1.84;100.00;92767.22;5064618;28;20036;-84
2021/12/01 00:28:06;;;;;;;9.65;4.90;;;;;;;-2.35;100.00;92692.25;5064341;28;20106;-84
2021/12/01 00:30:34;;;;;;;8.10;4.70;;;;;;;-1.97;100.00;92747.47;5064370;28;20041;-84
2021/12/01 00:33:03;;;;;;;16.13;8.30;;;;;;;-2.01;100.00;92746.16;5064015;28;20056;-85
2021/12/01 00:35:32;;;;;;;12.73;7.63;;;;;;;-2.29;100.00;92703.47;5064510;28;20047;-85
2021/12/01 00:37:59;;;;;;;22.63;9.23;;;;;;;-2.09;100.00;92720.94;5064332;28;20057;-85
2021/12/01 00:40:26;;;;;;;7.50;4.70;;;;;;;-1.72;100.00;92764.50;5064639;28;20164;-85
2021/12/01 00:42:54;;;;;;;12.48;5.88;;;;;;;-2.11;100.00;92712.72;5064530;28;20094;-84
2021/12/01 00:45:23;;;;;;;12.90;6.60;;;;;;;-1.69;100.00;92796.91;5064106;28;20250;-84
2021/12/01 00:47:52;;;;;;;44.40;23.10;;;;;;;-1.79;100.00;92790.25;5064416;28;20129;-82
2021/12/01 00:50:24;;;;;;;8.15;4.85;;;;;;;-1.78;100.00;92776.72;5064544;28;20127;-83
2021/12/01 00:52:52;;;;;;;10.07;6.35;;;;;;;-1.78;100.00;92776.72;5064102;28;20055;-83
2021/12/01 00:55:20;;;;;;;4.45;2.80;;;;;;;-1.76;100.00;92781.63;5064461;28;20055;-83
2021/12/01 00:57:47;;;;;;;6.63;4.45;;;;;;;-1.71;100.00;92766.84;5064323;28;20075;-84
2021/12/01 01:00:15;;;;;;;5.20;3.60;;;;;;;-1.66;100.00;92769.72;5064278;28;20098;-84
2021/12/01 01:02:42;;;;;;;6.32;3.90;;;;;;;-1.69;100.00;92764.97;5064604;28;20076;-83
2021/12/01 01:05:11;;;;;;;6.97;3.47;;;;;;;-1.62;100.00;92763.47;5064665;28;20044;-84
2021/12/01 01:07:39;;;;;;;5.35;2.88;;;;;;;-1.85;100.00;92730.38;5064271;28;20076;-83
2021/12/01 01:10:18;;;;;;;7.38;4.63;;;;;;;-1.71;100.00;92754.25;5057259;28;20424;-83
2021/12/01 01:18:15;;;;;;;7.10;3.83;;;;;;;-1.62;100.00;92770.25;5057589;28;20052;-83
2021/12/01 01:20:42;;;;;;;4.80;3.15;;;;;;;-1.63;100.00;92771.16;5057782;28;20080;-83
2021/12/01 01:23:10;;;;;;;6.03;3.85;;;;;;;-1.64;100.00;92762.03;5057858;28;20106;-81
2021/12/01 01:25:37;;;;;;;7.45;3.88;;;;;;;-1.72;100.00;92754.41;5057781;28;20095;-81
2021/12/01 01:28:05;;;;;;;7.28;3.47;;;;;;;-1.72;100.00;92762.75;5057822;28;20048;-81
2021/12/01 01:30:32;;;;;;;7.38;3.65;;;;;;;-1.70;100.00;92770.97;5057295;28;20511;-81
2021/12/01 01:33:00;;;;;;;5.68;3.67;;;;;;;-1.73;100.00;92780.53;5057695;28;20056;-82
2021/12/01 01:35:27;;;;;;;5.82;3.70;;;;;;;-1.68;100.00;92795.97;5057760;28;20037;-82
2021/12/01 01:37:54;;;;;;;8.27;4.35;;;;;;;-1.65;100.00;92788.16;5057496;28;20122;-83
2021/12/01 01:40:22;;;;;;;5.72;3.45;;;;;;;-1.61;100.00;92795.25;5057620;28;20124;-82
2021/12/01 01:42:49;;;;;;;6.28;3.97;;;;;;;-1.68;100.00;92780.88;5057132;28;20130;-82
2021/12/01 01:45:17;;;;;;;5.63;3.75;;;;;;;-1.83;100.00;92748.66;5057586;28;20407;-82
2021/12/01 01:47:59;;;;;;;9.38;4.03;;;;;;;-1.68;100.00;92773.31;5057218;28;20085;-82
2021/12/01 01:50:35;;;;;;;7.05;4.20;;;;;;;-1.51;100.00;92790.16;5057262;28;20459;-82
2021/12/01 01:53:04;;;;;;;5.47;3.80;;;;;;;-1.71;100.00;92756.78;5057405;28;20058;-83
2021/12/01 01:55:32;;;;;;;7.82;4.10;;;;;;;-1.59;100.00;92766.63;5057145;28;20135;-83
2021/12/01 01:57:59;;;;;;;9.05;4.35;;;;;;;-1.53;100.00;92769.34;5057146;28;20094;-83
2021/12/01 02:00:27;;;;;;;8.73;4.63;;;;;;;-1.49;100.00;92760.56;5057210;28;20051;-83
2021/12/01 02:02:56;;;;;;;5.70;3.63;;;;;;;-1.43;100.00;92746.56;5057050;28;20083;-83
2021/12/01 02:05:24;;;;;;;4.63;3.17;;;;;;;-1.96;100.00;92682.78;5056723;28;20475;-85
2021/12/01 02:07:52;;;;;;;5.95;3.95;;;;;;;-1.50;100.00;92756.47;5057434;28;20057;-85
2021/12/01 02:10:19;;;;;;;4.65;2.33;;;;;;;-1.40;100.00;92768.16;5056924;28;20095;-86
2021/12/01 02:12:49;;;;;;;4.97;3.33;;;;;;;-1.43;100.00;92748.31;5056853;28;20142;-85
2021/12/01 02:15:16;;;;;;;6.22;3.53;;;;;;;-1.17;100.00;92783.59;5057475;28;20057;-85
2021/12/01 02:17:43;;;;;;;10.23;4.70;;;;;;;-1.55;100.00;92727.59;5057097;28;20060;-85
2021/12/01 02:20:20;;;;;;;11.20;6.10;;;;;;;-1.07;100.00;92783.47;5056512;28;20461;-85
2021/12/01 02:22:48;;;;;;;11.60;6.60;;;;;;;-1.14;100.00;92763.13;5057497;28;20048;-85
2021/12/01 02:25:15;;;;;;;8.73;5.47;;;;;;;-1.12;100.00;92773.03;5057249;28;20147;-84
2021/12/01 02:27:42;;;;;;;7.28;3.95;;;;;;;-1.03;100.00;92784.78;5057177;28;20044;-85
2021/12/01 02:30:11;;;;;;;5.82;2.97;;;;;;;-1.50;100.00;92713.63;5056861;28;20103;-84
2021/12/01 02:32:39;;;;;;;7.35;3.92;;;;;;;-1.19;100.00;92755.22;5055882;28;20068;-84
2021/12/01 02:35:11;;;;;;;13.48;5.65;;;;;;;-1.93;100.00;92643.03;5056289;28;20059;-85
2021/12/01 02:37:41;;;;;;;10.63;5.40;;;;;;;-1.00;100.00;92759.28;5058077;28;20504;-85
2021/12/01 02:40:10;;;;;;;9.60;5.32;;;;;;;-1.53;100.00;92676.13;5057108;28;20102;-86
2021/12/01 02:42:37;;;;;;;8.00;4.00;;;;;;;-1.22;100.00;92697.56;5056264;28;20033;-85
2021/12/01 02:45:04;;;;;;;9.80;3.50;;;;;;;-1.42;100.00;92682.66;5056373;28;20057;-85
2021/12/01 02:47:31;;;;;;;7.07;3.50;;;;;;;-1.58;100.00;92675.78;5056106;28;20488;-85
2021/12/01 02:49:58;;;;;;;5.18;3.03;;;;;;;-1.33;100.00;92702.84;5056141;28;20194;-85
2021/12/01 02:52:25;;;;;;;8.60;3.78;;;;;;;-0.83;100.00;92777.78;5055592;28;20136;-85
2021/12/01 02:54:54;;;;;;;10.30;4.55;;;;;;;-0.91;100.00;92780.28;5055757;28;20567;-85
2021/12/01 02:57:22;;;;;;;7.07;3.67;;;;;;;-1.04;100.00;92782.38;5056376;28;20051;-85
2021/12/01 02:59:49;;;;;;;6.90;2.33;;;;;;;-1.36;100.00;92736.69;5055347;28;20457;-85
2021/12/01 03:02:17;;;;;;;4.68;2.67;;;;;;;-1.10;100.00;92778.75;5057199;28;20520;-84
2021/12/01 03:04:44;;;;;;;6.93;2.80;;;;;;;-1.00;100.00;92802.13;5056420;28;20488;-85
2021/12/01 03:07:12;;;;;;;4.43;2.47;;;;;;;-1.26;100.00;92755.03;5056029;28;20076;-85
2021/12/01 03:09:39;;;;;;;5.65;2.95;;;;;;;-1.11;100.00;92785.50;5060705;28;20076;-85
2021/12/01 03:12:09;;;;;;;5.72;2.53;;;;;;;-1.80;100.00;92697.22;5065597;28;20135;-86
2021/12/01 03:14:35;;;;;;;6.07;2.47;;;;;;;-1.27;100.00;92780.38;5065451;28;20141;-85
2021/12/01 03:17:03;;;;;;;5.53;2.70;;;;;;;-1.50;100.00;92740.53;5065405;28;20048;-85
2021/12/01 03:19:30;;;;;;;8.13;3.33;;;;;;;-1.69;100.00;92732.25;5064974;28;20052;-84
2021/12/01 03:21:57;;;;;;;5.90;3.08;;;;;;;-1.32;100.00;92772.47;5065740;28;20076;-84
2021/12/01 03:24:24;;;;;;;5.53;2.33;;;;;;;-1.52;100.00;92755.03;5065685;28;20464;-85
2021/12/01 03:26:52;;;;;;;6.85;2.63;;;;;;;-1.35;100.00;92776.88;5064971;28;20609;-86
2021/12/01 03:29:20;;;;;;;10.00;2.92;;;;;;;-1.29;100.00;92802.41;5065075;28;20094;-86
2021/12/01 03:31:47;;;;;;;8.48;2.55;;;;;;;-1.74;100.00;92734.41;5068035;28;20048;-86
2021/12/01 03:34:14;;;;;;;6.97;2.65;;;;;;;-1.26;100.00;92797.88;5068695;28;20682;-85
2021/12/01 03:36:41;;;;;;;3.30;2.28;;;;;;;-1.59;100.00;92754.03;5069282;28;20561;-83
2021/12/01 03:39:09;;;;;;;6.22;2.80;;;;;;;-1.15;100.00;92816.97;5069778;28;20056;-83
2021/12/01 03:41:36;;;;;;;9.52;3.55;;;;;;;-1.17;100.00;92813.06;5069310;28;20148;-83
2021/12/01 03:44:03;;;;;;;10.93;3.50;;;;;;;-1.18;100.00;92807.22;5069409;28;20676;-83
2021/12/01 03:46:31;;;;;;;6.82;3.92;;;;;;;-1.76;100.00;92724.47;5069501;28;20053;-86
2021/12/01 03:48:58;;;;;;;13.82;4.95;;;;;;;-1.83;100.00;92712.63;5069480;28;20106;-86
2021/12/01 03:51:25;;;;;;;11.35;4.80;;;;;;;-1.28;100.00;92806.50;5069014;28;20079;-82
2021/12/01 03:53:52;;;;;;;10.20;5.20;;;;;;;-1.37;100.00;92811.50;5068838;28;20040;-82
2021/12/01 03:56:20;;;;;;;10.65;4.75;;;;;;;-1.27;100.00;92818.97;5068632;28;20428;-82
2021/12/01 03:58:47;;;;;;;9.43;4.82;;;;;;;-1.33;100.00;92822.09;5068993;28;20560;-82
2021/12/01 04:01:15;;;;;;;10.48;5.00;;;;;;;-1.29;100.00;92813.28;5068329;28;20419;-83
2021/12/01 04:03:43;;;;;;;9.88;5.05;;;;;;;-1.24;100.00;92813.63;5069342;28;20052;-83
2021/12/01 04:06:10;;;;;;;10.32;5.03;;;;;;;-1.31;100.00;92791.72;5068386;28;20056;-84
2021/12/01 04:08:38;;;;;;;9.88;5.50;;;;;;;-1.22;100.00;92805.91;5068759;28;20116;-83
2021/12/01 04:11:05;;;;;;;8.43;4.25;;;;;;;-1.30;100.00;92768.84;5075245;28;20492;-83
2021/12/01 04:13:32;;;;;;;10.35;5.43;;;;;;;-1.10;100.00;92798.91;5078474;28;20052;-84
2021/12/01 04:15:59;;;;;;;9.32;4.72;;;;;;;-1.64;100.00;92709.13;5079828;28;20119;-83
2021/12/01 04:18:26;;;;;;;11.07;5.95;;;;;;;-1.09;100.00;92783.66;5077837;28;20131;-83
2021/12/01 04:20:54;;;;;;;10.25;4.90;;;;;;;-1.35;100.00;92751.66;5078341;28;20133;-84
2021/12/01 04:23:21;;;;;;;8.23;3.30;;;;;;;-1.34;100.00;92770.13;5079353;28;20517;-84
2021/12/01 04:26:04;;;;;;;13.00;7.68;;;;;;;-1.25;100.00;92788.59;5078384;28;20083;-84
2021/12/01 04:28:31;;;;;;;7.22;4.00;;;;;;;-1.79;100.00;92702.13;5076573;28;20098;-84
2021/12/01 04:30:58;;;;;;;9.70;6.13;;;;;;;-1.71;100.00;92716.47;5077498;28;20052;-84
2021/12/01 04:33:25;;;;;;;13.60;6.65;;;;;;;-1.76;100.00;92723.72;5079063;28;20041;-84
2021/12/01 04:35:54;;;;;;;9.32;5.07;;;;;;;-1.69;100.00;92741.53;5078778;28;20106;-84
2021/12/01 04:38:21;;;;;;;7.60;4.15;;;;;;;-1.48;100.00;92776.47;5077063;28;20071;-87
2021/12/01 04:40:48;;;;;;;7.90;4.82;;;;;;;-1.32;100.00;92806.03;5078837;28;20079;-85
2021/12/01 04:43:17;;;;;;;7.47;3.97;;;;;;;-1.32;100.00;92805.22;5078898;28;20045;-88
2021/12/01 04:45:47;;;;;;;15.95;9.02;;;;;;;-1.74;100.00;92736.94;5079069;28;20567;-87
2021/12/01 04:48:15;;;;;;;13.85;8.38;;;;;;;-1.25;100.00;92803.72;5080422;28;20044;-86
2021/12/01 04:50:42;;;;;;;31.58;15.52;;;;;;;-1.74;100.00;92719.31;5081094;28;20098;-88
2021/12/01 04:53:10;;;;;;;13.95;7.72;;;;;;;-1.27;100.00;92791.25;5082539;28;20050;-87
2021/12/01 04:55:38;;;;;;;16.85;8.95;;;;;;;-1.17;100.00;92798.72;5083230;28;20048;-86
2021/12/01 04:58:05;;;;;;;10.45;5.40;;;;;;;-1.16;100.00;92810.38;5078913;28;20048;-85
2021/12/01 05:00:34;;;;;;;31.77;14.93;;;;;;;-1.29;100.00;92802.41;5081868;28;20044;-86
2021/12/01 05:03:01;;;;;;;15.10;5.95;;;;;;;-1.30;100.00;92796.56;5080938;28;20044;-86
2021/12/01 05:05:29;;;;;;;8.95;4.78;;;;;;;-1.27;100.00;92805.56;5081986;28;20119;-86
2021/12/01 05:07:56;;;;;;;11.18;5.85;;;;;;;-1.19;100.00;92813.19;5082784;28;20556;-86
2021/12/01 05:10:24;;;;;;;17.48;8.05;;;;;;;-1.53;100.00;92756.75;5080485;28;20442;-86
2021/12/01 05:12:51;;;;;;;12.73;5.63;;;;;;;-1.24;100.00;92801.03;5081409;28;20081;-86
2021/12/01 05:15:18;;;;;;;10.80;5.00;;;;;;;-1.27;100.00;92780.38;5083144;28;20155;-86
2021/12/01 05:17:45;;;;;;;12.85;6.13;;;;;;;-1.48;100.00;92736.94;5080920;28;20140;-87
2021/12/01 05:20:13;;;;;;;28.42;14.05;;;;;;;-1.18;100.00;92793.81;5081710;28;20134;-85
2021/12/01 05:22:42;;;;;;;19.67;8.80;;;;;;;-0.99;100.00;92808.75;5083242;28;20109;-85
2021/12/01 05:25:14;;;;;;;17.42;8.88;;;;;;;-1.38;100.00;92751.94;5081464;28;20139;-87
2021/12/01 05:27:42;;;;;;;23.88;11.13;;;;;;;-1.15;100.00;92785.97;5080732;28;20041;-90
2021/12/01 05:30:10;;;;;;;20.42;9.20;;;;;;;-1.38;100.00;92766.31;5081844;28;20127;-88
2021/12/01 05:32:37;;;;;;;29.88;14.05;;;;;;;-0.99;100.00;92815.50;5082443;28;20418;-88
2021/12/01 05:35:15;;;;;;;36.15;17.85;;;;;;;-1.25;100.00;92788.59;5077469;28;20454;-91
2021/12/01 05:37:45;;;;;;;26.67;13.90;;;;;;;-1.38;100.00;92761.25;5079598;28;20439;-91
2021/12/01 05:40:13;;;;;;;23.77;12.07;;;;;;;-1.05;100.00;92800.97;5080882;28;20467;-90
2021/12/01 05:42:44;;;;;;;26.25;13.10;;;;;;;-1.70;100.00;92697.13;5082323;28;20126;-91
2021/12/01 05:45:12;;;;;;;16.77;8.23;;;;;;;-1.65;100.00;92705.84;5081021;28;20063;-91
2021/12/01 05:47:41;;;;;;;20.00;10.70;;;;;;;-0.86;100.00;92820.97;5079802;28;20452;-90
2021/12/01 05:50:09;;;;;;;54.50;25.75;;;;;;;-1.61;100.00;92704.59;5081186;28;20487;-89
2021/12/01 05:52:47;;;;;;;16.88;8.80;;;;;;;-1.11;100.00;92782.22;5081545;28;20045;-89
2021/12/01 05:55:14;;;;;;;16.35;8.65;;;;;;;-0.83;100.00;92827.44;5081030;28;20044;-89
2021/12/01 05:57:41;;;;;;;17.08;9.07;;;;;;;-1.02;100.00;92785.56;5054508;28;20040;-85
2021/12/01 06:00:13;;;;;;;17.27;9.43;;;;;;;-1.32;100.00;92775.78;5081114;28;20052;-87
2021/12/01 06:02:42;;;;;;;13.50;7.25;;;;;;;-0.90;100.00;92839.03;5081837;28;20122;-88
2021/12/01 06:05:10;;;;;;;28.48;14.85;;;;;;;-0.63;100.00;92873.41;5080201;28;20518;-85
2021/12/01 06:07:40;;;;;;;25.20;11.90;;;;;;;-1.44;100.00;92745.00;5079692;28;20126;-92
2021/12/01 06:10:07;;;;;;;33.08;18.08;;;;;;;-0.70;100.00;92853.03;5077429;28;20056;-85
2021/12/01 06:12:34;;;;;;;20.63;10.57;;;;;;;-0.77;100.00;92846.22;5079864;28;20129;-87
2021/12/01 06:15:02;;;;;;;15.20;8.05;;;;;;;-0.70;100.00;92839.63;5081332;28;20094;-85
2021/12/01 06:17:31;;;;;;;12.30;7.82;;;;;;;-0.72;100.00;92847.34;5080170;28;20056;-86
2021/12/01 06:19:57;;;;;;;13.75;7.70;;;;;;;-0.54;100.00;92859.09;5079573;28;20044;-86
2021/12/01 06:22:24;;;;;;;14.68;9.40;;;;;;;-0.42;100.00;92867.19;5081626;28;20109;-84
2021/12/01 06:24:51;;;;;;;18.88;10.27;;;;;;;-0.86;100.00;92799.97;5074552;28;20167;-84
2021/12/01 06:27:19;;;;;;;22.15;11.18;;;;;;;-0.41;100.00;92853.66;5079756;28;20123;-84
2021/12/01 06:29:46;;;;;;;23.33;13.38;;;;;;;-0.37;100.00;92854.13;5076591;28;20049;-85
2021/12/01 06:32:12;;;;;;;32.38;17.42;;;;;;;-0.33;100.00;92863.75;5079666;28;20569;-84
2021/12/01 06:34:43;;;;;;;30.65;17.60;;;;;;;-0.49;100.00;92851.88;5080989;28;20044;-85
2021/12/01 06:37:10;;;;;;;26.27;16.45;;;;;;;-0.41;100.00;92866.25;5079807;28;20633;-84
2021/12/01 06:39:37;;;;;;;13.32;8.13;;;;;;;-0.25;100.00;92880.69;5079387;28;20072;-84
2021/12/01 06:42:04;;;;;;;29.98;18.10;;;;;;;-0.22;100.00;92882.09;5076829;28;20113;-83
2021/12/01 06:44:33;;;;;;;32.65;16.42;;;;;;;-0.18;100.00;92891.75;5079838;28;20117;-83
2021/12/01 06:47:01;;;;;;;44.70;22.58;;;;;;;-0.23;100.00;92883.81;5080724;28;20040;-83
2021/12/01 06:49:28;;;;;;;35.03;18.38;;;;;;;-0.17;100.00;92892.53;5079286;28;20506;-83
2021/12/01 06:51:56;;;;;;;29.80;16.23;;;;;;;-0.16;100.00;92899.16;5073659;28;20045;-83
2021/12/01 06:54:26;;;;;;;26.20;14.98;;;;;;;-0.25;100.00;92878.16;5069901;28;20049;-83
2021/12/01 06:56:53;;;;;;;30.13;12.82;;;;;;;-0.20;100.00;92883.53;5069792;28;20079;-83
2021/12/01 06:59:20;;;;;;;18.42;9.68;;;;;;;-0.19;100.00;92889.38;5070281;28;20557;-83
2021/12/01 07:01:47;;;;;;;14.15;8.02;;;;;;;-0.52;100.00;92841.28;5069866;28;20129;-83
2021/12/01 07:04:15;;;;;;;19.70;11.63;;;;;;;-0.25;100.00;92880.69;5069838;28;20051;-82
2021/12/01 07:06:42;;;;;;;100.57;58.75;;;;;;;-0.09;100.00;92889.25;5069828;28;20083;-82
2021/12/01 07:09:17;;;;;;;25.13;14.40;;;;;;;-0.29;100.00;92836.47;5069850;28;20056;-83
2021/12/01 07:11:44;;;;;;;18.27;11.07;;;;;;;-0.09;100.00;92867.31;5069187;28;20079;-83
2021/12/01 07:14:11;;;;;;;25.67;16.35;;;;;;;0.13;100.00;92893.75;5069750;28;20056;-82
2021/12/01 07:16:38;;;;;;;131.75;75.97;;;;;;;0.22;100.00;92899.63;5069661;28;20052;-83
2021/12/01 07:19:06;;;;;;;83.28;48.42;;;;;;;0.39;100.00;92905.50;5069838;28;20048;-82
2021/12/01 07:21:33;;;;;;;66.07;34.97;;;;;;;0.43;100.00;92898.41;5069375;28;20551;-83
2021/12/01 07:24:00;;;;;;;117.53;57.67;;;;;;;0.36;100.00;92898.22;5069811;28;20072;-83
2021/12/01 07:26:28;;;;;;;93.25;46.03;;;;;;;0.52;100.00;92904.25;5069468;28;20080;-83
2021/12/01 07:28:55;;;;;;;92.05;48.30;;;;;;;0.60;100.00;92908.53;5069598;28;20560;-83
2021/12/01 07:31:22;;;;;;;169.02;71.00;;;;;;;0.66;100.00;92907.91;5082062;28;20076;-83
2021/12/01 07:33:49;;;;;;;125.47;59.78;;;;;;;0.72;100.00;92912.34;5089763;28;20137;-84
2021/12/01 07:36:16;;;;;;;52.45;28.10;;;;;;;0.71;100.00;92902.38;5089677;28;20113;-84
2021/12/01 07:38:43;;;;;;;58.47;35.38;;;;;;;0.82;100.00;92904.59;5089571;28;20055;-83
2021/12/01 07:41:10;;;;;;;29.13;17.77;;;;;;;0.60;100.00;92866.34;5089636;28;20052;-83
2021/12/01 07:43:39;;;;;;;58.20;33.83;;;;;;;0.93;100.00;92911.88;5081429;28;20564;-82
2021/12/01 07:46:06;;;;;;;51.40;30.70;;;;;;;0.90;100.00;92916.47;5079860;28;20495;-84
2021/12/01 07:48:32;;;;;;;16.13;10.80;;;;;;;0.96;100.00;92918.34;5077491;28;20036;-83
2021/12/01 07:50:59;;;;;;;21.20;14.30;;;;;;;0.99;100.00;92922.31;5083159;28;20074;-82
2021/12/01 07:53:26;;;;;;;14.43;9.85;;;;;;;0.69;100.00;92884.06;5089216;28;20052;-82
2021/12/01 07:55:53;;;;;;;16.70;9.73;;;;;;;0.92;100.00;92919.63;5089649;28;20150;-83
2021/12/01 07:58:20;;;;;;;18.17;10.82;;;;;;;1.01;100.00;92931.31;5089223;28;20043;-82
2021/12/01 08:00:48;;;;;;;22.83;13.13;;;;;;;1.08;100.00;92925.63;5089513;28;20105;-83
2021/12/01 08:03:15;;;;;;;38.45;26.98;;;;;;;1.16;100.00;92928.16;5089547;28;20052;-82
2021/12/01 08:05:45;;;;;;;35.08;23.85;;;;;;;1.14;100.00;92914.88;5089092;28;20081;-82
2021/12/01 08:08:12;;;;;;;30.92;18.98;;;;;;;0.57;100.00;92818.66;5088695;28;20040;-82
2021/12/01 08:10:40;;;;;;;36.58;23.92;;;;;;;1.40;100.00;92927.34;5089364;28;20063;-82
2021/12/01 08:13:06;;;;;;;19.65;11.20;;;;;;;1.40;100.00;92922.31;5089312;28;20051;-84
2021/12/01 08:15:33;;;;;;;12.65;6.97;;;;;;;0.92;100.00;92869.03;5088879;28;20071;-84
2021/12/01 08:18:02;;;;;;;36.08;28.55;;;;;;;1.42;100.00;92927.19;5089274;28;20052;-84
2021/12/01 08:20:29;;;;;;;30.40;17.50;;;;;;;1.18;100.00;92895.91;5089645;28;20395;-83
2021/12/01 08:22:56;;;;;;;31.90;18.00;;;;;;;1.14;100.00;92867.59;5091764;28;20139;-84
2021/12/01 08:25:23;;;;;;;32.35;17.58;;;;;;;1.59;100.00;92933.00;5093547;28;20079;-84
2021/12/01 08:27:50;;;;;;;27.42;19.35;;;;;;;1.01;100.00;92839.47;5093529;28;20154;-85
2021/12/01 08:30:17;;;;;;;18.55;12.13;;;;;;;1.72;100.00;92932.53;5093650;28;20105;-85
2021/12/01 08:32:46;;;;;;;25.40;14.95;;;;;;;1.63;100.00;92916.56;5093186;28;20052;-86
2021/12/01 08:35:15;;;;;;;30.08;17.75;;;;;;;1.79;100.00;92935.16;5092649;28;20052;-87
2021/12/01 08:37:42;;;;;;;53.92;29.13;;;;;;;1.83;100.00;92941.50;5093148;28;20102;-87
2021/12/01 08:40:13;;;;;;;25.88;16.85;;;;;;;1.57;100.00;92882.53;5093071;28;20055;-87
2021/12/01 08:42:40;;;;;;;25.55;15.88;;;;;;;1.94;100.00;92927.72;5093047;28;20227;-87
2021/12/01 08:45:10;;;;;;;17.92;11.30;;;;;;;1.55;100.00;92881.91;5092875;28;20113;-88
2021/12/01 08:47:39;;;;;;;21.83;11.23;;;;;;;1.68;100.00;92873.81;5092105;28;20453;-88
2021/12/01 08:50:16;;;;;;;24.42;16.40;;;;;;;1.28;100.00;92804.63;5092299;28;20560;-90
2021/12/01 08:53:07;;;;;;;34.95;23.33;;;;;;;1.49;100.00;92809.16;5092602;28;20063;-91
2021/12/01 08:55:57;;;;;;;19.27;13.45;;;;;;;1.39;100.00;92790.84;5091798;28;20059;-92
2021/12/01 08:58:48;;;;;;;19.48;11.90;;;;;;;1.91;100.00;92859.63;5082351;28;20118;-92
2021/12/01 09:01:52;;;;;;;22.92;15.18;;;;;;;1.62;100.00;92805.31;5069751;28;20047;-91
2021/12/01 09:04:55;;;;;;;;;;;;;;;;;;;;;
2021/12/01 09:07:23;;;;;;;23.30;14.25;;;;;;;2.20;100.00;92871.69;5073446;28;20300;-90
2021/12/01 09:10:03;;;;;;;21.00;12.50;;;;;;;2.18;100.00;92860.91;5071396;28;20241;-88
2021/12/01 09:13:01;;;;;;;25.73;13.63;;;;;;;1.88;100.00;92789.84;5071266;28;20132;-90
2021/12/01 09:15:29;;;;;;;22.58;12.10;;;;;;;1.99;100.00;92816.56;5065944;28;20613;-89
2021/12/01 09:17:57;;;;;;;19.17;10.80;;;;;;;2.10;100.00;92823.78;5072252;28;20056;-85
2021/12/01 09:20:24;;;;;;;13.55;8.70;;;;;;;2.29;100.00;92858.97;5072062;28;20060;-85
2021/12/01 09:22:51;;;;;;;10.23;6.60;;;;;;;2.60;100.00;92916.47;5071981;28;20056;-86
2021/12/01 09:25:20;;;;;;;7.28;5.63;;;;;;;2.16;100.00;92860.31;5071927;28;20045;-86
2021/12/01 09:27:48;;;;;;;9.85;6.03;;;;;;;2.11;100.00;92857.47;5071882;28;20059;-84
2021/12/01 09:30:17;;;;;;;7.78;4.05;;;;;;;2.40;100.00;92899.94;5071982;28;20150;-86
2021/12/01 09:32:44;;;;;;;10.45;7.15;;;;;;;2.45;100.00;92917.19;5071987;28;20052;-85
2021/12/01 09:35:12;;;;;;;19.20;14.18;;;;;;;2.53;100.00;92922.22;5070395;28;20056;-86
2021/12/01 09:37:41;;;;;;;29.17;18.60;;;;;;;2.61;100.00;92921.38;5071836;28;20051;-87
2021/12/01 09:40:13;;;;;;;24.58;16.42;;;;;;;2.57;100.00;92907.44;5071681;28;20415;-86
2021/12/01 09:42:43;;;;;;;18.75;9.95;;;;;;;2.69;100.00;92918.00;5071593;28;20056;-86
2021/12/01 09:45:12;;;;;;;15.82;9.95;;;;;;;2.63;100.00;92911.84;5071108;28;20500;-86
2021/12/01 09:47:39;;;;;;;14.20;7.65;;;;;;;2.15;100.00;92838.47;5071756;28;20040;-87
2021/12/01 09:50:08;;;;;;;11.40;7.10;;;;;;;2.64;100.00;92910.88;5071597;28;20063;-87
2021/12/01 09:52:35;;;;;;;16.20;9.32;;;;;;;2.67;100.00;92914.84;5071252;28;20048;-87
2021/12/01 09:55:04;;;;;;;18.30;10.60;;;;;;;1.97;100.00;92813.38;5071141;28;20051;-88
2021/12/01 09:57:31;;;;;;;21.80;13.32;;;;;;;2.04;100.00;92824.41;5071111;28;20457;-87
2021/12/01 10:00:00;;;;;;;19.63;10.18;;;;;;;2.29;100.00;92857.22;5070896;28;20561;-89
2021/12/01 10:02:28;;;;;;;12.60;7.18;;;;;;;2.74;100.00;92914.97;5071295;28;20097;-88
2021/12/01 10:04:55;;;;;;;18.10;8.27;;;;;;;2.71;100.00;92900.88;5070859;28;20079;-88
2021/12/01 10:07:33;;;;;;;21.75;11.88;;;;;;;2.39;100.00;92841.78;5071208;28;20459;-89
2021/12/01 10:10:08;;;;;;;19.63;10.98;;;;;;;2.24;100.00;92821.47;5070403;28;20080;-89
2021/12/01 10:12:45;;;;;;;15.02;9.25;;;;;;;2.82;100.00;92914.88;5071004;28;20052;-88
2021/12/01 10:15:14;;;;;;;10.63;5.28;;;;;;;2.83;100.00;92903.81;5070557;28;20523;-89
2021/12/01 10:17:46;;;;;;;8.32;4.97;;;;;;;2.37;100.00;92841.19;5070355;28;20053;-89
2021/12/01 10:20:19;;;;;;;12.40;8.52;;;;;;;2.46;100.00;92862.97;5070474;28;20484;-89
2021/12/01 10:23:10;;;;;;;5.65;4.03;;;;;;;2.84;100.00;92907.91;5070375;28;20048;-88
2021/12/01 10:25:41;;;;;;;5.90;3.90;;;;;;;2.41;100.00;92824.69;5070418;28;20495;-89
2021/12/01 10:28:13;;;;;;;5.30;3.10;;;;;;;2.87;100.00;92901.72;5070160;28;20125;-88
2021/12/01 10:30:44;;;;;;;10.93;6.18;;;;;;;2.66;100.00;92860.00;5070328;28;20126;-88
2021/12/01 10:33:19;;;;;;;6.53;3.22;;;;;;;2.82;100.00;92887.00;5070624;28;20163;-89
2021/12/01 10:35:56;;;;;;;7.88;4.30;;;;;;;2.39;100.00;92824.84;5070107;28;20500;-89
2021/12/01 10:38:35;;;;;;;13.15;6.93;;;;;;;2.48;100.00;92828.13;5069892;28;20044;-89
2021/12/01 10:41:16;;;;;;;8.02;4.78;;;;;;;2.49;100.00;92821.28;5069773;28;20064;-89
2021/12/01 10:43:57;;;;;;;10.43;5.88;;;;;;;2.97;100.00;92884.53;5070086;28;20055;-89
2021/12/01 10:49:43;;;;;;;74.88;36.53;;;;;;;2.57;100.00;92808.56;5068080;28;20093;-89
2021/12/01 10:52:33;;;;;;;69.00;36.38;;;;;;;2.94;100.00;92862.81;5069483;28;20118;-89
2021/12/01 10:55:10;;;;;;;30.08;16.90;;;;;;;3.26;100.00;92892.34;5069948;28;20049;-87
2021/12/01 10:57:40;;;;;;;17.58;8.93;;;;;;;2.92;100.00;92829.19;5069974;28;20056;-87
2021/12/01 11:00:15;;;;;;;61.90;35.30;;;;;;;3.37;100.00;92889.41;5070223;28;20056;-89
2021/12/01 11:02:57;;;;;;;16.42;8.63;;;;;;;3.40;100.00;92883.97;5070133;28;20063;-89
2021/12/01 11:05:39;;;;;;;12.82;7.97;;;;;;;3.37;100.00;92875.94;5069226;28;20450;-89
2021/12/01 11:08:25;;;;;;;8.95;4.90;;;;;;;2.73;100.00;92792.41;5069518;28;20136;-90
2021/12/01 11:11:01;;;;;;;5.95;3.55;;;;;;;2.93;100.00;92833.31;5069015;28;20468;-89
2021/12/01 11:13:40;;;;;;;7.90;3.97;;;;;;;2.80;100.00;92803.47;5069346;28;20395;-90
2021/12/01 11:16:20;;;;;;;9.65;5.63;;;;;;;2.40;100.00;92757.19;5069329;28;20401;-90
2021/12/01 11:19:04;;;;;;;24.42;12.88;;;;;;;2.74;100.00;92808.44;5069322;28;20096;-90
2021/12/01 11:21:32;;;;;;;21.30;10.23;;;;;;;2.80;100.00;92813.63;5069335;28;20055;-88
2021/12/01 11:24:08;;;;;;;6.97;3.40;;;;;;;2.63;100.00;92782.53;5069809;28;20045;-90
2021/12/01 11:26:36;;;;;;;5.10;3.35;;;;;;;2.72;100.00;92805.28;5069391;28;20071;-89
2021/12/01 11:29:21;;;;;;;10.40;5.45;;;;;;;2.39;100.00;92750.53;5069480;28;20044;-90
2021/12/01 11:31:49;;;;;;;9.10;5.18;;;;;;;3.15;100.00;92861.34;5069358;28;20123;-88
2021/12/01 11:34:20;;;;;;;13.35;7.50;;;;;;;2.96;100.00;92833.94;5069272;28;20063;-89
2021/12/01 11:36:49;;;;;;;11.10;6.05;;;;;;;3.13;100.00;92865.81;5069144;28;20052;-89
2021/12/01 11:39:22;;;;;;;7.53;4.15;;;;;;;2.69;100.00;92803.88;5069512;28;20988;-91
2021/12/01 11:41:53;;;;;;;5.70;2.70;;;;;;;2.24;100.00;92728.50;5068347;28;20049;-89